McMicken Heights, Washington
Current Conditions -  °F | °C
As of 1:53 PM on Saturday 25 Oct 2014 (Local Time) from KSEA Reporting Station
Light Rain Light Rain  
Wind Chill: 59°   Ceiling: 6500
Heat Index: 59°   Visibility: 10mi
Dew Point: 51°   Wind: 3mph
Humidity: 75%   Direction: 70°ENE
Pressure: 29.34"   Gusts: NA
Location:  47.4488°N, 122.28°W
Report Text: KSEA 252053Z 07003KT 10SM -RA OVC065 15/11 A2934 RMK AO2 RAE01B52 SLP940 P0000 60000 T01500106 56037
Loading
Personal Weather Stations






























Interactive Weather Map
Tropical Storm Tracking
New forecast layout! Learn more

10-Day Weather Forecast

Advertisements
Track Severe Weather on mobile